sensor_id;sensor_type;location;lat;lon;timestamp;P1;durP1;ratioP1;P2;durP2;ratioP2
75932;SDS011;64803;52.356;5.310;2023-02-15T00:00:31;52.83;;;20.50;;
75932;SDS011;64803;52.356;5.310;2023-02-15T00:02:57;44.33;;;19.08;;
75932;SDS011;64803;52.356;5.310;2023-02-15T00:05:23;47.15;;;19.35;;
75932;SDS011;64803;52.356;5.310;2023-02-15T00:07:49;53.33;;;21.38;;
75932;SDS011;64803;52.356;5.310;2023-02-15T00:10:15;54.85;;;22.00;;
75932;SDS011;64803;52.356;5.310;2023-02-15T00:12:42;54.45;;;20.60;;
75932;SDS011;64803;52.356;5.310;2023-02-15T00:15:08;53.25;;;22.48;;
75932;SDS011;64803;52.356;5.310;2023-02-15T00:17:35;58.88;;;22.38;;
75932;SDS011;64803;52.356;5.310;2023-02-15T00:20:01;56.15;;;22.15;;
75932;SDS011;64803;52.356;5.310;2023-02-15T00:22:27;59.10;;;23.20;;
75932;SDS011;64803;52.356;5.310;2023-02-15T00:24:53;53.63;;;24.25;;
75932;SDS011;64803;52.356;5.310;2023-02-15T00:27:19;52.80;;;20.08;;
75932;SDS011;64803;52.356;5.310;2023-02-15T00:29:46;55.92;;;21.25;;
75932;SDS011;64803;52.356;5.310;2023-02-15T00:32:12;48.75;;;19.25;;
75932;SDS011;64803;52.356;5.310;2023-02-15T00:34:39;47.92;;;19.40;;
75932;SDS011;64803;52.356;5.310;2023-02-15T00:37:05;40.28;;;17.73;;
75932;SDS011;64803;52.356;5.310;2023-02-15T00:39:31;53.38;;;20.40;;
75932;SDS011;64803;52.356;5.310;2023-02-15T00:41:58;37.88;;;16.08;;
75932;SDS011;64803;52.356;5.310;2023-02-15T00:44:24;56.45;;;19.80;;
75932;SDS011;64803;52.356;5.310;2023-02-15T00:46:50;54.15;;;19.52;;
75932;SDS011;64803;52.356;5.310;2023-02-15T00:49:16;83.18;;;24.52;;
75932;SDS011;64803;52.356;5.310;2023-02-15T00:51:42;149.32;;;27.88;;
75932;SDS011;64803;52.356;5.310;2023-02-15T00:54:08;156.73;;;25.13;;
75932;SDS011;64803;52.356;5.310;2023-02-15T00:56:34;137.43;;;24.83;;
75932;SDS011;64803;52.356;5.310;2023-02-15T00:59:00;74.43;;;23.10;;
75932;SDS011;64803;52.356;5.310;2023-02-15T01:01:26;171.32;;;27.00;;
75932;SDS011;64803;52.356;5.310;2023-02-15T01:03:52;111.85;;;26.65;;
75932;SDS011;64803;52.356;5.310;2023-02-15T01:06:18;100.97;;;27.17;;
75932;SDS011;64803;52.356;5.310;2023-02-15T01:08:45;107.28;;;23.90;;
75932;SDS011;64803;52.356;5.310;2023-02-15T01:11:15;266.65;;;32.83;;
75932;SDS011;64803;52.356;5.310;2023-02-15T01:13:51;127.25;;;27.27;;
75932;SDS011;64803;52.356;5.310;2023-02-15T01:16:18;134.23;;;24.83;;
75932;SDS011;64803;52.356;5.310;2023-02-15T01:18:44;88.60;;;23.27;;
75932;SDS011;64803;52.356;5.310;2023-02-15T01:21:13;153.38;;;26.05;;
75932;SDS011;64803;52.356;5.310;2023-02-15T01:23:43;184.18;;;27.83;;
75932;SDS011;64803;52.356;5.310;2023-02-15T01:26:12;65.35;;;23.65;;
75932;SDS011;64803;52.356;5.310;2023-02-15T01:28:38;57.28;;;23.42;;
75932;SDS011;64803;52.356;5.310;2023-02-15T01:31:09;62.85;;;23.10;;
75932;SDS011;64803;52.356;5.310;2023-02-15T01:33:37;71.22;;;24.30;;
75932;SDS011;64803;52.356;5.310;2023-02-15T01:36:03;65.38;;;24.98;;
75932;SDS011;64803;52.356;5.310;2023-02-15T01:40:57;49.70;;;21.58;;
75932;SDS011;64803;52.356;5.310;2023-02-15T01:43:47;54.45;;;20.95;;
75932;SDS011;64803;52.356;5.310;2023-02-15T01:46:27;64.82;;;23.73;;
75932;SDS011;64803;52.356;5.310;2023-02-15T01:49:03;48.80;;;21.23;;
75932;SDS011;64803;52.356;5.310;2023-02-15T01:51:36;53.70;;;21.38;;
75932;SDS011;64803;52.356;5.310;2023-02-15T01:54:19;64.72;;;22.30;;
75932;SDS011;64803;52.356;5.310;2023-02-15T01:56:50;57.65;;;21.90;;
75932;SDS011;64803;52.356;5.310;2023-02-15T01:59:17;57.92;;;21.27;;
75932;SDS011;64803;52.356;5.310;2023-02-15T02:01:48;52.42;;;19.60;;
75932;SDS011;64803;52.356;5.310;2023-02-15T02:04:19;50.97;;;20.80;;
75932;SDS011;64803;52.356;5.310;2023-02-15T02:06:55;53.20;;;20.50;;
75932;SDS011;64803;52.356;5.310;2023-02-15T02:09:23;52.17;;;20.52;;
75932;SDS011;64803;52.356;5.310;2023-02-15T02:11:49;59.72;;;22.02;;
75932;SDS011;64803;52.356;5.310;2023-02-15T02:14:16;52.85;;;21.30;;
75932;SDS011;64803;52.356;5.310;2023-02-15T02:16:55;48.92;;;20.98;;
75932;SDS011;64803;52.356;5.310;2023-02-15T02:36:44;67.60;;;23.35;;
75932;SDS011;64803;52.356;5.310;2023-02-15T02:42:14;57.30;;;20.63;;
75932;SDS011;64803;52.356;5.310;2023-02-15T02:44:54;54.00;;;22.55;;
75932;SDS011;64803;52.356;5.310;2023-02-15T02:49:52;58.53;;;21.38;;
75932;SDS011;64803;52.356;5.310;2023-02-15T02:55:07;71.93;;;22.10;;
75932;SDS011;64803;52.356;5.310;2023-02-15T03:00:22;59.30;;;22.48;;
75932;SDS011;64803;52.356;5.310;2023-02-15T03:02:52;57.53;;;22.23;;
75932;SDS011;64803;52.356;5.310;2023-02-15T03:05:24;85.53;;;24.90;;
75932;SDS011;64803;52.356;5.310;2023-02-15T03:07:53;80.97;;;23.25;;
75932;SDS011;64803;52.356;5.310;2023-02-15T03:10:22;55.03;;;20.48;;
75932;SDS011;64803;52.356;5.310;2023-02-15T03:12:50;58.53;;;21.15;;
75932;SDS011;64803;52.356;5.310;2023-02-15T03:15:25;54.03;;;19.83;;
75932;SDS011;64803;52.356;5.310;2023-02-15T03:18:15;56.85;;;22.33;;
75932;SDS011;64803;52.356;5.310;2023-02-15T03:20:45;60.08;;;20.80;;
75932;SDS011;64803;52.356;5.310;2023-02-15T03:25:43;50.80;;;20.17;;
75932;SDS011;64803;52.356;5.310;2023-02-15T03:28:15;48.67;;;19.75;;
75932;SDS011;64803;52.356;5.310;2023-02-15T03:30:48;63.25;;;20.67;;
75932;SDS011;64803;52.356;5.310;2023-02-15T03:33:19;53.85;;;19.73;;
75932;SDS011;64803;52.356;5.310;2023-02-15T03:36:10;54.35;;;18.92;;
75932;SDS011;64803;52.356;5.310;2023-02-15T03:38:54;53.20;;;20.50;;
75932;SDS011;64803;52.356;5.310;2023-02-15T03:41:40;58.08;;;20.77;;
75932;SDS011;64803;52.356;5.310;2023-02-15T03:44:14;54.17;;;19.75;;
75932;SDS011;64803;52.356;5.310;2023-02-15T03:49:50;55.85;;;21.63;;
75932;SDS011;64803;52.356;5.310;2023-02-15T03:52:56;73.57;;;21.75;;
75932;SDS011;64803;52.356;5.310;2023-02-15T03:55:25;66.47;;;23.95;;
75932;SDS011;64803;52.356;5.310;2023-02-15T03:57:52;68.07;;;23.77;;
75932;SDS011;64803;52.356;5.310;2023-02-15T04:00:37;57.95;;;23.25;;
75932;SDS011;64803;52.356;5.310;2023-02-15T04:03:33;70.75;;;22.20;;
75932;SDS011;64803;52.356;5.310;2023-02-15T04:06:10;70.55;;;21.70;;
75932;SDS011;64803;52.356;5.310;2023-02-15T04:08:36;58.92;;;20.35;;
75932;SDS011;64803;52.356;5.310;2023-02-15T04:11:21;63.83;;;21.15;;
75932;SDS011;64803;52.356;5.310;2023-02-15T04:13:47;65.13;;;24.30;;
75932;SDS011;64803;52.356;5.310;2023-02-15T04:16:13;76.55;;;22.90;;
75932;SDS011;64803;52.356;5.310;2023-02-15T04:18:40;65.30;;;21.60;;
75932;SDS011;64803;52.356;5.310;2023-02-15T04:21:28;64.75;;;22.45;;
75932;SDS011;64803;52.356;5.310;2023-02-15T04:24:14;60.60;;;21.63;;
75932;SDS011;64803;52.356;5.310;2023-02-15T04:26:59;64.50;;;20.55;;
75932;SDS011;64803;52.356;5.310;2023-02-15T04:29:26;67.47;;;22.70;;
75932;SDS011;64803;52.356;5.310;2023-02-15T04:31:53;59.70;;;20.25;;
75932;SDS011;64803;52.356;5.310;2023-02-15T04:34:20;69.40;;;21.33;;
75932;SDS011;64803;52.356;5.310;2023-02-15T04:36:46;59.35;;;20.42;;
75932;SDS011;64803;52.356;5.310;2023-02-15T04:39:13;56.28;;;20.95;;
75932;SDS011;64803;52.356;5.310;2023-02-15T04:41:40;73.60;;;22.88;;
75932;SDS011;64803;52.356;5.310;2023-02-15T04:44:07;59.28;;;19.58;;
75932;SDS011;64803;52.356;5.310;2023-02-15T04:46:33;57.90;;;20.33;;
75932;SDS011;64803;52.356;5.310;2023-02-15T04:48:59;65.05;;;23.85;;
75932;SDS011;64803;52.356;5.310;2023-02-15T04:51:25;75.28;;;23.88;;
75932;SDS011;64803;52.356;5.310;2023-02-15T04:53:51;81.30;;;24.27;;
75932;SDS011;64803;52.356;5.310;2023-02-15T04:56:20;66.82;;;22.23;;
75932;SDS011;64803;52.356;5.310;2023-02-15T04:58:46;74.50;;;23.85;;
75932;SDS011;64803;52.356;5.310;2023-02-15T05:01:13;65.70;;;21.65;;
75932;SDS011;64803;52.356;5.310;2023-02-15T05:03:39;61.72;;;19.85;;
75932;SDS011;64803;52.356;5.310;2023-02-15T05:06:08;55.03;;;20.67;;
75932;SDS011;64803;52.356;5.310;2023-02-15T05:08:34;61.40;;;19.20;;
75932;SDS011;64803;52.356;5.310;2023-02-15T05:11:00;64.15;;;20.15;;
75932;SDS011;64803;52.356;5.310;2023-02-15T05:13:26;61.95;;;22.88;;
75932;SDS011;64803;52.356;5.310;2023-02-15T05:15:52;52.70;;;19.70;;
75932;SDS011;64803;52.356;5.310;2023-02-15T05:18:19;59.38;;;20.63;;
75932;SDS011;64803;52.356;5.310;2023-02-15T05:20:46;56.30;;;20.00;;
75932;SDS011;64803;52.356;5.310;2023-02-15T05:23:13;65.72;;;20.38;;
75932;SDS011;64803;52.356;5.310;2023-02-15T05:25:40;56.58;;;21.15;;
75932;SDS011;64803;52.356;5.310;2023-02-15T05:28:26;57.63;;;19.42;;
75932;SDS011;64803;52.356;5.310;2023-02-15T05:33:30;61.05;;;21.20;;
75932;SDS011;64803;52.356;5.310;2023-02-15T05:35:56;62.05;;;20.63;;
75932;SDS011;64803;52.356;5.310;2023-02-15T05:38:23;68.35;;;21.73;;
75932;SDS011;64803;52.356;5.310;2023-02-15T05:40:50;66.50;;;22.02;;
75932;SDS011;64803;52.356;5.310;2023-02-15T05:43:16;63.35;;;20.77;;
75932;SDS011;64803;52.356;5.310;2023-02-15T05:45:46;63.22;;;21.95;;
75932;SDS011;64803;52.356;5.310;2023-02-15T05:48:14;56.55;;;19.42;;
75932;SDS011;64803;52.356;5.310;2023-02-15T05:50:40;59.25;;;20.75;;
75932;SDS011;64803;52.356;5.310;2023-02-15T05:53:06;60.53;;;19.90;;
75932;SDS011;64803;52.356;5.310;2023-02-15T05:55:33;51.55;;;19.65;;
75932;SDS011;64803;52.356;5.310;2023-02-15T05:57:59;58.33;;;21.17;;
75932;SDS011;64803;52.356;5.310;2023-02-15T06:00:25;59.00;;;20.45;;
75932;SDS011;64803;52.356;5.310;2023-02-15T06:02:51;66.40;;;21.58;;
75932;SDS011;64803;52.356;5.310;2023-02-15T06:05:17;62.15;;;23.88;;
75932;SDS011;64803;52.356;5.310;2023-02-15T06:07:43;47.03;;;18.25;;
75932;SDS011;64803;52.356;5.310;2023-02-15T06:10:10;59.83;;;19.75;;
75932;SDS011;64803;52.356;5.310;2023-02-15T06:12:37;69.18;;;19.25;;
75932;SDS011;64803;52.356;5.310;2023-02-15T06:15:03;55.38;;;18.23;;
75932;SDS011;64803;52.356;5.310;2023-02-15T06:17:30;60.88;;;20.58;;
75932;SDS011;64803;52.356;5.310;2023-02-15T06:19:55;63.83;;;21.92;;
75932;SDS011;64803;52.356;5.310;2023-02-15T06:22:21;58.55;;;20.20;;
75932;SDS011;64803;52.356;5.310;2023-02-15T06:24:48;63.00;;;22.48;;
75932;SDS011;64803;52.356;5.310;2023-02-15T06:27:14;58.35;;;20.23;;
75932;SDS011;64803;52.356;5.310;2023-02-15T06:29:40;67.80;;;20.13;;
75932;SDS011;64803;52.356;5.310;2023-02-15T06:32:06;65.53;;;20.92;;
75932;SDS011;64803;52.356;5.310;2023-02-15T06:34:32;59.65;;;20.48;;
75932;SDS011;64803;52.356;5.310;2023-02-15T06:36:58;57.55;;;18.58;;
75932;SDS011;64803;52.356;5.310;2023-02-15T06:39:24;57.42;;;18.42;;
75932;SDS011;64803;52.356;5.310;2023-02-15T06:41:51;52.25;;;17.75;;
75932;SDS011;64803;52.356;5.310;2023-02-15T06:44:17;58.30;;;18.83;;
75932;SDS011;64803;52.356;5.310;2023-02-15T06:46:43;69.05;;;20.80;;
75932;SDS011;64803;52.356;5.310;2023-02-15T06:49:09;54.72;;;18.65;;
75932;SDS011;64803;52.356;5.310;2023-02-15T06:51:35;57.30;;;18.77;;
75932;SDS011;64803;52.356;5.310;2023-02-15T06:54:01;64.97;;;21.52;;
75932;SDS011;64803;52.356;5.310;2023-02-15T06:56:27;63.33;;;19.77;;
75932;SDS011;64803;52.356;5.310;2023-02-15T06:58:53;71.95;;;22.30;;
75932;SDS011;64803;52.356;5.310;2023-02-15T07:01:19;58.58;;;20.83;;
75932;SDS011;64803;52.356;5.310;2023-02-15T07:03:45;53.05;;;17.30;;
75932;SDS011;64803;52.356;5.310;2023-02-15T07:06:11;71.47;;;22.77;;
75932;SDS011;64803;52.356;5.310;2023-02-15T07:08:37;76.05;;;22.67;;
75932;SDS011;64803;52.356;5.310;2023-02-15T07:11:05;60.92;;;23.20;;
75932;SDS011;64803;52.356;5.310;2023-02-15T07:13:50;61.10;;;21.25;;
75932;SDS011;64803;52.356;5.310;2023-02-15T07:16:20;74.53;;;23.80;;
75932;SDS011;64803;52.356;5.310;2023-02-15T07:18:46;80.35;;;22.92;;
75932;SDS011;64803;52.356;5.310;2023-02-15T07:21:12;73.10;;;23.88;;
75932;SDS011;64803;52.356;5.310;2023-02-15T07:23:38;67.53;;;21.90;;
75932;SDS011;64803;52.356;5.310;2023-02-15T07:26:05;65.13;;;20.60;;
75932;SDS011;64803;52.356;5.310;2023-02-15T07:28:32;60.70;;;21.20;;
75932;SDS011;64803;52.356;5.310;2023-02-15T07:31:03;63.28;;;21.60;;
75932;SDS011;64803;52.356;5.310;2023-02-15T07:33:33;65.40;;;21.92;;
75932;SDS011;64803;52.356;5.310;2023-02-15T07:36:01;60.20;;;19.77;;
75932;SDS011;64803;52.356;5.310;2023-02-15T07:38:33;71.63;;;22.73;;
75932;SDS011;64803;52.356;5.310;2023-02-15T07:41:03;58.58;;;20.80;;
75932;SDS011;64803;52.356;5.310;2023-02-15T07:43:32;63.28;;;22.08;;
75932;SDS011;64803;52.356;5.310;2023-02-15T07:46:00;67.38;;;21.73;;
75932;SDS011;64803;52.356;5.310;2023-02-15T07:48:31;80.03;;;26.83;;
75932;SDS011;64803;52.356;5.310;2023-02-15T07:51:00;63.38;;;22.13;;
75932;SDS011;64803;52.356;5.310;2023-02-15T07:53:27;74.38;;;23.10;;
75932;SDS011;64803;52.356;5.310;2023-02-15T07:55:54;72.55;;;25.73;;
75932;SDS011;64803;52.356;5.310;2023-02-15T07:58:20;71.65;;;24.25;;
75932;SDS011;64803;52.356;5.310;2023-02-15T08:00:46;70.15;;;22.63;;
75932;SDS011;64803;52.356;5.310;2023-02-15T08:03:27;81.13;;;24.38;;
75932;SDS011;64803;52.356;5.310;2023-02-15T08:05:58;66.45;;;22.73;;
75932;SDS011;64803;52.356;5.310;2023-02-15T08:08:27;70.05;;;25.27;;
75932;SDS011;64803;52.356;5.310;2023-02-15T08:11:04;72.65;;;23.13;;
75932;SDS011;64803;52.356;5.310;2023-02-15T08:14:02;74.40;;;26.48;;
75932;SDS011;64803;52.356;5.310;2023-02-15T08:16:32;71.03;;;23.83;;
75932;SDS011;64803;52.356;5.310;2023-02-15T08:21:36;67.13;;;23.50;;
75932;SDS011;64803;52.356;5.310;2023-02-15T08:24:08;74.40;;;24.10;;
75932;SDS011;64803;52.356;5.310;2023-02-15T08:26:35;67.22;;;24.08;;
75932;SDS011;64803;52.356;5.310;2023-02-15T08:29:02;67.22;;;22.50;;
75932;SDS011;64803;52.356;5.310;2023-02-15T08:31:28;66.25;;;23.40;;
75932;SDS011;64803;52.356;5.310;2023-02-15T08:33:55;71.38;;;25.33;;
75932;SDS011;64803;52.356;5.310;2023-02-15T08:36:23;67.70;;;25.92;;
75932;SDS011;64803;52.356;5.310;2023-02-15T08:38:51;71.10;;;27.17;;
75932;SDS011;64803;52.356;5.310;2023-02-15T08:41:18;75.55;;;27.52;;
75932;SDS011;64803;52.356;5.310;2023-02-15T08:43:46;75.00;;;26.33;;
75932;SDS011;64803;52.356;5.310;2023-02-15T08:46:15;59.05;;;25.27;;
75932;SDS011;64803;52.356;5.310;2023-02-15T08:48:42;65.35;;;25.23;;
75932;SDS011;64803;52.356;5.310;2023-02-15T08:51:09;65.35;;;23.05;;
75932;SDS011;64803;52.356;5.310;2023-02-15T08:53:38;78.00;;;25.77;;
75932;SDS011;64803;52.356;5.310;2023-02-15T08:56:06;65.90;;;24.92;;
75932;SDS011;64803;52.356;5.310;2023-02-15T08:58:32;62.10;;;23.40;;
75932;SDS011;64803;52.356;5.310;2023-02-15T09:00:59;61.92;;;23.40;;
75932;SDS011;64803;52.356;5.310;2023-02-15T09:03:27;67.93;;;24.77;;
75932;SDS011;64803;52.356;5.310;2023-02-15T09:05:58;66.72;;;25.27;;
75932;SDS011;64803;52.356;5.310;2023-02-15T09:08:25;65.80;;;26.17;;
75932;SDS011;64803;52.356;5.310;2023-02-15T09:10:52;65.03;;;23.00;;
75932;SDS011;64803;52.356;5.310;2023-02-15T09:13:18;63.90;;;25.35;;
75932;SDS011;64803;52.356;5.310;2023-02-15T09:15:44;63.15;;;24.02;;
75932;SDS011;64803;52.356;5.310;2023-02-15T09:18:10;63.08;;;24.45;;
75932;SDS011;64803;52.356;5.310;2023-02-15T09:20:37;61.85;;;23.67;;
75932;SDS011;64803;52.356;5.310;2023-02-15T09:23:03;64.88;;;25.38;;
75932;SDS011;64803;52.356;5.310;2023-02-15T09:25:29;64.82;;;22.88;;
75932;SDS011;64803;52.356;5.310;2023-02-15T09:27:55;73.45;;;25.30;;
75932;SDS011;64803;52.356;5.310;2023-02-15T09:30:21;60.42;;;24.67;;
75932;SDS011;64803;52.356;5.310;2023-02-15T09:32:47;52.72;;;23.10;;
75932;SDS011;64803;52.356;5.310;2023-02-15T09:35:13;54.25;;;22.35;;
75932;SDS011;64803;52.356;5.310;2023-02-15T09:37:39;60.15;;;24.63;;
75932;SDS011;64803;52.356;5.310;2023-02-15T09:40:06;59.33;;;23.45;;
75932;SDS011;64803;52.356;5.310;2023-02-15T09:45:29;61.10;;;23.90;;
75932;SDS011;64803;52.356;5.310;2023-02-15T09:56:48;47.78;;;19.63;;
75932;SDS011;64803;52.356;5.310;2023-02-15T09:59:24;49.10;;;19.75;;
75932;SDS011;64803;52.356;5.310;2023-02-15T10:08:09;51.35;;;19.67;;
75932;SDS011;64803;52.356;5.310;2023-02-15T10:14:01;50.63;;;19.50;;
75932;SDS011;64803;52.356;5.310;2023-02-15T10:19:16;46.97;;;20.67;;
75932;SDS011;64803;52.356;5.310;2023-02-15T10:24:56;42.97;;;18.85;;
75932;SDS011;64803;52.356;5.310;2023-02-15T10:27:27;49.03;;;20.05;;
75932;SDS011;64803;52.356;5.310;2023-02-15T10:30:07;46.17;;;20.60;;
75932;SDS011;64803;52.356;5.310;2023-02-15T10:32:40;50.03;;;18.83;;
75932;SDS011;64803;52.356;5.310;2023-02-15T10:41:13;46.15;;;18.80;;
75932;SDS011;64803;52.356;5.310;2023-02-15T10:46:36;44.53;;;20.63;;
75932;SDS011;64803;52.356;5.310;2023-02-15T10:52:33;41.90;;;17.55;;
75932;SDS011;64803;52.356;5.310;2023-02-15T11:06:11;43.88;;;18.58;;
75932;SDS011;64803;52.356;5.310;2023-02-15T11:08:43;38.45;;;18.25;;
75932;SDS011;64803;52.356;5.310;2023-02-15T11:11:15;45.47;;;20.98;;
75932;SDS011;64803;52.356;5.310;2023-02-15T11:13:49;47.63;;;19.08;;
75932;SDS011;64803;52.356;5.310;2023-02-15T11:16:23;43.40;;;17.75;;
75932;SDS011;64803;52.356;5.310;2023-02-15T11:18:55;47.80;;;17.92;;
75932;SDS011;64803;52.356;5.310;2023-02-15T11:21:29;45.67;;;18.80;;
75932;SDS011;64803;52.356;5.310;2023-02-15T11:26:29;40.70;;;18.25;;
75932;SDS011;64803;52.356;5.310;2023-02-15T11:29:09;44.17;;;18.42;;
75932;SDS011;64803;52.356;5.310;2023-02-15T11:31:56;39.20;;;17.80;;
75932;SDS011;64803;52.356;5.310;2023-02-15T11:34:34;41.42;;;17.63;;
75932;SDS011;64803;52.356;5.310;2023-02-15T11:37:08;43.08;;;17.88;;
75932;SDS011;64803;52.356;5.310;2023-02-15T11:39:39;46.22;;;18.58;;
75932;SDS011;64803;52.356;5.310;2023-02-15T11:42:15;41.67;;;16.20;;
75932;SDS011;64803;52.356;5.310;2023-02-15T11:45:07;43.38;;;17.88;;
75932;SDS011;64803;52.356;5.310;2023-02-15T11:47:43;36.67;;;17.60;;
75932;SDS011;64803;52.356;5.310;2023-02-15T11:50:16;43.50;;;17.80;;
75932;SDS011;64803;52.356;5.310;2023-02-15T11:52:48;38.17;;;17.15;;
75932;SDS011;64803;52.356;5.310;2023-02-15T11:55:18;38.78;;;17.10;;
75932;SDS011;64803;52.356;5.310;2023-02-15T11:57:49;41.47;;;16.48;;
75932;SDS011;64803;52.356;5.310;2023-02-15T12:03:24;40.40;;;17.25;;
75932;SDS011;64803;52.356;5.310;2023-02-15T12:06:02;44.03;;;17.65;;
75932;SDS011;64803;52.356;5.310;2023-02-15T12:08:37;43.15;;;17.92;;
75932;SDS011;64803;52.356;5.310;2023-02-15T12:11:09;36.92;;;15.68;;
75932;SDS011;64803;52.356;5.310;2023-02-15T12:13:57;45.13;;;18.05;;
75932;SDS011;64803;52.356;5.310;2023-02-15T12:16:26;39.22;;;18.48;;
75932;SDS011;64803;52.356;5.310;2023-02-15T12:18:56;41.72;;;17.60;;
75932;SDS011;64803;52.356;5.310;2023-02-15T12:21:39;39.85;;;17.25;;
75932;SDS011;64803;52.356;5.310;2023-02-15T12:27:18;43.63;;;19.63;;
75932;SDS011;64803;52.356;5.310;2023-02-15T12:29:56;40.90;;;16.80;;
75932;SDS011;64803;52.356;5.310;2023-02-15T12:32:28;49.90;;;18.70;;
75932;SDS011;64803;52.356;5.310;2023-02-15T12:35:01;42.00;;;17.67;;
75932;SDS011;64803;52.356;5.310;2023-02-15T12:37:38;46.55;;;19.13;;
75932;SDS011;64803;52.356;5.310;2023-02-15T12:40:18;42.00;;;18.25;;
75932;SDS011;64803;52.356;5.310;2023-02-15T12:42:46;46.20;;;19.65;;
75932;SDS011;64803;52.356;5.310;2023-02-15T12:45:26;43.92;;;17.50;;
75932;SDS011;64803;52.356;5.310;2023-02-15T12:50:44;41.15;;;18.50;;
75932;SDS011;64803;52.356;5.310;2023-02-15T12:55:49;39.53;;;18.02;;
75932;SDS011;64803;52.356;5.310;2023-02-15T12:58:17;45.60;;;19.38;;
75932;SDS011;64803;52.356;5.310;2023-02-15T13:00:45;44.05;;;19.25;;
75932;SDS011;64803;52.356;5.310;2023-02-15T13:03:18;41.55;;;20.27;;
75932;SDS011;64803;52.356;5.310;2023-02-15T13:05:53;51.03;;;18.40;;
75932;SDS011;64803;52.356;5.310;2023-02-15T13:08:31;43.33;;;20.17;;
75932;SDS011;64803;52.356;5.310;2023-02-15T13:11:11;45.15;;;18.45;;
75932;SDS011;64803;52.356;5.310;2023-02-15T13:13:45;42.78;;;18.85;;
75932;SDS011;64803;52.356;5.310;2023-02-15T13:16:17;39.28;;;18.55;;
75932;SDS011;64803;52.356;5.310;2023-02-15T13:18:50;38.70;;;17.67;;
75932;SDS011;64803;52.356;5.310;2023-02-15T13:21:19;45.55;;;19.45;;
75932;SDS011;64803;52.356;5.310;2023-02-15T13:23:51;42.08;;;17.52;;
75932;SDS011;64803;52.356;5.310;2023-02-15T13:26:22;44.75;;;18.27;;
75932;SDS011;64803;52.356;5.310;2023-02-15T13:28:54;41.80;;;17.42;;
75932;SDS011;64803;52.356;5.310;2023-02-15T13:31:26;40.97;;;18.75;;
75932;SDS011;64803;52.356;5.310;2023-02-15T13:36:58;44.08;;;18.00;;
75932;SDS011;64803;52.356;5.310;2023-02-15T13:42:19;38.13;;;18.08;;
75932;SDS011;64803;52.356;5.310;2023-02-15T13:53:41;37.92;;;18.52;;
75932;SDS011;64803;52.356;5.310;2023-02-15T13:56:50;42.10;;;18.13;;
75932;SDS011;64803;52.356;5.310;2023-02-15T14:05:15;39.67;;;17.52;;
75932;SDS011;64803;52.356;5.310;2023-02-15T14:10:33;41.38;;;18.13;;
75932;SDS011;64803;52.356;5.310;2023-02-15T14:13:10;47.22;;;17.90;;
75932;SDS011;64803;52.356;5.310;2023-02-15T14:15:47;42.08;;;17.17;;
75932;SDS011;64803;52.356;5.310;2023-02-15T14:20:58;42.03;;;18.27;;
75932;SDS011;64803;52.356;5.310;2023-02-15T14:23:49;40.08;;;18.63;;
75932;SDS011;64803;52.356;5.310;2023-02-15T14:26:32;43.42;;;18.08;;
75932;SDS011;64803;52.356;5.310;2023-02-15T14:29:33;44.53;;;19.90;;
75932;SDS011;64803;52.356;5.310;2023-02-15T14:32:08;41.05;;;17.17;;
75932;SDS011;64803;52.356;5.310;2023-02-15T14:42:59;45.67;;;18.77;;
75932;SDS011;64803;52.356;5.310;2023-02-15T14:45:55;43.70;;;18.50;;
75932;SDS011;64803;52.356;5.310;2023-02-15T14:48:31;47.03;;;18.40;;
75932;SDS011;64803;52.356;5.310;2023-02-15T15:01:25;37.53;;;15.85;;
75932;SDS011;64803;52.356;5.310;2023-02-15T15:04:03;38.38;;;16.85;;
75932;SDS011;64803;52.356;5.310;2023-02-15T15:06:34;44.60;;;16.10;;
75932;SDS011;64803;52.356;5.310;2023-02-15T15:11:52;38.15;;;15.32;;
75932;SDS011;64803;52.356;5.310;2023-02-15T15:16:58;37.10;;;15.90;;
75932;SDS011;64803;52.356;5.310;2023-02-15T15:22:20;38.85;;;16.02;;
75932;SDS011;64803;52.356;5.310;2023-02-15T15:24:48;40.22;;;16.55;;
75932;SDS011;64803;52.356;5.310;2023-02-15T15:32:38;42.78;;;18.38;;
75932;SDS011;64803;52.356;5.310;2023-02-15T15:43:29;42.45;;;19.00;;
75932;SDS011;64803;52.356;5.310;2023-02-15T15:49:19;37.75;;;16.88;;
75932;SDS011;64803;52.356;5.310;2023-02-15T15:51:47;38.53;;;17.42;;
75932;SDS011;64803;52.356;5.310;2023-02-15T15:54:15;38.88;;;15.57;;
75932;SDS011;64803;52.356;5.310;2023-02-15T15:56:44;40.33;;;17.35;;
75932;SDS011;64803;52.356;5.310;2023-02-15T15:59:18;43.92;;;17.95;;
75932;SDS011;64803;52.356;5.310;2023-02-15T16:01:47;43.00;;;18.25;;
75932;SDS011;64803;52.356;5.310;2023-02-15T16:04:21;45.08;;;20.60;;
75932;SDS011;64803;52.356;5.310;2023-02-15T16:06:50;47.60;;;18.70;;
75932;SDS011;64803;52.356;5.310;2023-02-15T16:09:17;41.35;;;19.27;;
75932;SDS011;64803;52.356;5.310;2023-02-15T16:11:52;45.28;;;17.88;;
75932;SDS011;64803;52.356;5.310;2023-02-15T16:14:29;43.90;;;18.15;;
75932;SDS011;64803;52.356;5.310;2023-02-15T16:19:28;43.25;;;17.73;;
75932;SDS011;64803;52.356;5.310;2023-02-15T16:21:59;44.38;;;17.17;;
75932;SDS011;64803;52.356;5.310;2023-02-15T16:27:16;39.25;;;17.33;;
75932;SDS011;64803;52.356;5.310;2023-02-15T16:29:51;44.40;;;17.33;;
75932;SDS011;64803;52.356;5.310;2023-02-15T16:32:21;45.40;;;19.05;;
75932;SDS011;64803;52.356;5.310;2023-02-15T16:35:00;43.95;;;19.30;;
75932;SDS011;64803;52.356;5.310;2023-02-15T16:37:30;43.33;;;18.98;;
75932;SDS011;64803;52.356;5.310;2023-02-15T16:39:57;51.00;;;19.45;;
75932;SDS011;64803;52.356;5.310;2023-02-15T16:42:24;42.35;;;18.67;;
75932;SDS011;64803;52.356;5.310;2023-02-15T16:44:51;47.13;;;19.20;;
75932;SDS011;64803;52.356;5.310;2023-02-15T16:47:24;46.33;;;18.00;;
75932;SDS011;64803;52.356;5.310;2023-02-15T16:49:53;48.47;;;19.88;;
75932;SDS011;64803;52.356;5.310;2023-02-15T16:52:26;47.58;;;18.67;;
75932;SDS011;64803;52.356;5.310;2023-02-15T16:54:54;47.60;;;20.38;;
75932;SDS011;64803;52.356;5.310;2023-02-15T16:57:24;46.10;;;18.17;;
75932;SDS011;64803;52.356;5.310;2023-02-15T16:59:55;39.28;;;18.30;;
75932;SDS011;64803;52.356;5.310;2023-02-15T17:02:29;48.28;;;19.90;;
75932;SDS011;64803;52.356;5.310;2023-02-15T17:05:01;40.58;;;18.60;;
75932;SDS011;64803;52.356;5.310;2023-02-15T17:07:33;45.45;;;18.40;;
75932;SDS011;64803;52.356;5.310;2023-02-15T17:10:15;47.90;;;20.10;;
75932;SDS011;64803;52.356;5.310;2023-02-15T17:12:52;45.20;;;20.83;;
75932;SDS011;64803;52.356;5.310;2023-02-15T17:15:27;46.42;;;20.23;;
75932;SDS011;64803;52.356;5.310;2023-02-15T17:18:02;50.92;;;19.75;;
75932;SDS011;64803;52.356;5.310;2023-02-15T17:20:37;49.28;;;21.70;;
75932;SDS011;64803;52.356;5.310;2023-02-15T17:23:17;50.72;;;20.90;;
75932;SDS011;64803;52.356;5.310;2023-02-15T17:25:54;48.85;;;20.77;;
75932;SDS011;64803;52.356;5.310;2023-02-15T17:28:21;54.63;;;21.60;;
75932;SDS011;64803;52.356;5.310;2023-02-15T17:30:51;52.78;;;20.27;;
75932;SDS011;64803;52.356;5.310;2023-02-15T17:33:26;50.17;;;19.60;;
75932;SDS011;64803;52.356;5.310;2023-02-15T17:36:02;52.70;;;20.67;;
75932;SDS011;64803;52.356;5.310;2023-02-15T17:38:35;52.42;;;21.17;;
75932;SDS011;64803;52.356;5.310;2023-02-15T17:41:02;51.85;;;20.15;;
75932;SDS011;64803;52.356;5.310;2023-02-15T17:43:29;48.63;;;20.73;;